Aviation Digital Data Service (ADDS)

Output produced by TAFs form (2226 UTC 30 August 2015)
found at http://aviationweather.gov/adds/tafs/
 
KDMN 301733Z 3018/3118 15006KT P6SM FEW080 
     FM302200 13007KT P6SM VCTS SCT090CB SCT250 
     FM310300 VRB05KT P6SM FEW120 SCT250